Time;durP1;ratioP1;P1;durP2;ratioP2;P2;SDS_P1;SDS_P2;PMS_P1;PMS_P2;Temp;Humidity;BMP_temperature;BMP_pressure;BME280_temperature;BME280_humidity;BME280_pressure;Samples;Min_cycle;Max_cycle;Signal;HPM_P1;HPM_P2
2023/08/19 00:01:04;;;;;;;3.95;1.88;;;20.60;1.00;;;;;;5031166;28;20034;-87
2023/08/19 00:03:34;;;;;;;4.00;1.73;;;20.60;1.00;;;;;;5039918;28;20042;-87
2023/08/19 00:06:08;;;;;;;3.63;1.40;;;20.60;1.00;;;;;;5046335;28;20053;-87
2023/08/19 00:08:35;;;;;;;6.65;1.70;;;20.60;1.00;;;;;;5028532;28;20054;-87
2023/08/19 00:11:02;;;;;;;4.07;1.55;;;20.50;1.00;;;;;;5036765;28;20044;-87
2023/08/19 00:13:30;;;;;;;3.28;1.65;;;20.40;1.00;;;;;;5034589;28;20026;-88
2023/08/19 00:15:56;;;;;;;3.45;1.65;;;20.40;1.00;;;;;;5025284;28;20034;-88
2023/08/19 00:18:22;;;;;;;2.88;1.40;;;20.30;1.00;;;;;;5022712;28;20033;-88
2023/08/19 00:20:52;;;;;;;5.22;1.70;;;20.30;1.00;;;;;;5029984;28;20040;-87
2023/08/19 00:23:22;;;;;;;2.85;1.55;;;20.40;1.00;;;;;;5042099;28;20041;-85
2023/08/19 00:25:48;;;;;;;2.38;1.48;;;20.30;1.00;;;;;;5029126;28;20026;-81
2023/08/19 00:28:15;;;;;;;4.13;2.05;;;20.30;1.00;;;;;;5039591;28;20056;-86
2023/08/19 00:30:41;;;;;;;2.38;1.45;;;20.40;1.00;;;;;;5034074;28;20029;-88
2023/08/19 00:33:07;;;;;;;5.65;2.17;;;20.30;1.00;;;;;;5026834;28;20621;-88
2023/08/19 00:35:33;;;;;;;2.63;1.77;;;20.30;1.00;;;;;;5012947;28;20038;-88
2023/08/19 00:37:59;;;;;;;3.17;1.77;;;20.30;1.00;;;;;;5032952;28;20068;-89
2023/08/19 00:40:25;;;;;;;3.75;1.83;;;20.30;1.00;;;;;;5021763;28;20048;-88
2023/08/19 00:42:52;;;;;;;5.05;1.88;;;20.30;1.00;;;;;;5018828;28;20562;-87
2023/08/19 00:45:18;;;;;;;2.63;1.60;;;20.20;1.00;;;;;;5040970;28;20033;-86
2023/08/19 00:47:45;;;;;;;2.75;1.58;;;20.20;1.00;;;;;;5036663;28;20413;-88
2023/08/19 00:50:12;;;;;;;3.92;2.05;;;20.10;1.00;;;;;;5029680;28;20386;-89
2023/08/19 00:52:39;;;;;;;7.03;1.95;;;20.00;24.40;;;;;;5026963;28;20434;-88
2023/08/19 00:55:06;;;;;;;3.83;1.70;;;19.90;55.80;;;;;;5037165;28;20141;-87
2023/08/19 00:57:36;;;;;;;3.15;1.85;;;19.90;69.20;;;;;;5024162;28;20483;-87
2023/08/19 01:00:06;;;;;;;4.00;1.65;;;20.00;57.60;;;;;;5018372;28;20060;-87
2023/08/19 01:02:32;;;;;;;4.07;2.20;;;20.00;50.80;;;;;;5025795;28;20041;-87
2023/08/19 01:04:59;;;;;;;6.60;2.03;;;20.10;40.10;;;;;;5029211;28;20029;-87
2023/08/19 01:07:37;;;;;;;3.50;1.85;;;20.10;42.70;;;;;;5035198;28;20058;-87
2023/08/19 01:10:19;;;;;;;3.45;1.70;;;20.10;55.20;;;;;;5028617;28;20029;-88
2023/08/19 01:13:01;;;;;;;3.83;2.17;;;20.00;53.40;;;;;;5033106;28;20061;-88
2023/08/19 01:15:35;;;;;;;3.67;2.20;;;20.10;53.50;;;;;;5019710;28;20049;-88
2023/08/19 01:18:05;;;;;;;3.25;2.28;;;20.10;45.70;;;;;;5021301;28;20034;-89
2023/08/19 01:20:33;;;;;;;4.32;3.25;;;20.00;50.80;;;;;;5030713;28;20046;-87
2023/08/19 01:23:06;;;;;;;2.95;1.95;;;20.10;59.40;;;;;;5025745;28;20038;-88
2023/08/19 01:25:32;;;;;;;4.45;2.15;;;20.00;64.30;;;;;;5016562;28;20034;-88
2023/08/19 01:28:03;;;;;;;3.28;2.22;;;20.10;68.40;;;;;;5033532;28;20481;-85
2023/08/19 01:30:31;;;;;;;3.15;1.80;;;20.10;64.90;;;;;;5029653;28;20029;-88
2023/08/19 01:32:57;;;;;;;4.40;2.40;;;20.10;65.80;;;;;;5027662;28;20041;-88
2023/08/19 01:35:24;;;;;;;5.57;2.03;;;20.00;67.40;;;;;;5024767;28;20463;-88
2023/08/19 01:38:03;;;;;;;2.50;1.67;;;20.00;69.30;;;;;;5037844;28;20045;-81
2023/08/19 01:40:30;;;;;;;2.75;1.60;;;20.10;71.70;;;;;;5028250;28;20040;-87
2023/08/19 01:42:59;;;;;;;3.75;2.20;;;20.20;67.40;;;;;;5002001;28;20037;-87
2023/08/19 01:45:26;;;;;;;3.72;1.92;;;20.30;53.50;;;;;;5028386;28;20050;-87
2023/08/19 01:47:55;;;;;;;3.13;2.03;;;20.30;34.30;;;;;;5029842;28;20498;-87
2023/08/19 01:50:22;;;;;;;3.58;1.90;;;20.30;32.60;;;;;;5039048;28;20352;-88
2023/08/19 01:52:48;;;;;;;3.33;1.70;;;20.30;28.00;;;;;;5039301;28;20037;-86
2023/08/19 01:55:14;;;;;;;3.83;2.00;;;20.30;31.40;;;;;;5045106;28;20386;-87
2023/08/19 01:57:40;;;;;;;2.85;1.70;;;20.30;32.30;;;;;;5030349;28;20036;-86
2023/08/19 02:00:07;;;;;;;2.00;1.65;;;20.30;37.50;;;;;;5032930;28;20042;-88
2023/08/19 02:02:42;;;;;;;4.53;1.95;;;20.40;44.80;;;;;;5038392;28;20493;-87
2023/08/19 02:05:13;;;;;;;2.15;1.65;;;20.40;28.70;;;;;;5035610;28;20172;-87
2023/08/19 02:07:39;;;;;;;3.15;2.00;;;20.40;27.70;;;;;;5021042;28;20052;-87
2023/08/19 02:10:07;;;;;;;3.47;2.10;;;20.40;40.80;;;;;;5021130;28;20037;-87
2023/08/19 02:12:33;;;;;;;3.97;2.00;;;20.40;28.00;;;;;;5041287;28;20035;-87
2023/08/19 02:14:59;;;;;;;2.17;1.65;;;20.40;36.50;;;;;;5033603;28;20458;-87
2023/08/19 02:17:25;;;;;;;3.67;1.73;;;20.30;38.90;;;;;;5026474;28;20042;-87
2023/08/19 02:19:51;;;;;;;4.55;2.30;;;20.30;53.50;;;;;;5035605;28;20474;-80
2023/08/19 02:22:20;;;;;;;5.57;2.97;;;20.30;50.00;;;;;;5031996;28;20034;-87
2023/08/19 02:24:47;;;;;;;4.90;2.30;;;20.20;62.30;;;;;;5021356;28;20045;-86
2023/08/19 02:27:13;;;;;;;4.07;1.85;;;20.20;83.60;;;;;;5019091;28;20041;-86
2023/08/19 02:29:40;;;;;;;3.13;2.22;;;20.10;99.90;;;;;;5028857;28;20053;-86
2023/08/19 02:32:06;;;;;;;3.95;1.90;;;20.10;99.90;;;;;;5025546;28;20474;-86
2023/08/19 02:34:33;;;;;;;3.75;2.20;;;20.00;99.90;;;;;;5031500;28;20046;-87
2023/08/19 02:36:59;;;;;;;3.78;1.70;;;20.00;99.90;;;;;;5029055;28;20032;-87
2023/08/19 02:39:25;;;;;;;5.07;1.75;;;20.00;99.90;;;;;;5030541;28;20053;-87
2023/08/19 02:41:52;;;;;;;3.20;2.22;;;19.90;99.90;;;;;;5023049;28;20056;-80
2023/08/19 02:44:18;;;;;;;3.78;1.83;;;19.90;99.90;;;;;;5031637;28;20034;-86
2023/08/19 02:46:44;;;;;;;3.45;2.20;;;19.80;99.90;;;;;;5036072;28;20037;-86
2023/08/19 02:49:10;;;;;;;3.10;2.30;;;19.80;99.90;;;;;;5024070;28;20053;-86
2023/08/19 02:51:37;;;;;;;3.58;2.25;;;19.80;99.90;;;;;;5029219;28;20044;-88
2023/08/19 02:54:03;;;;;;;2.92;2.22;;;19.80;99.90;;;;;;5028647;28;20045;-88
2023/08/19 02:56:29;;;;;;;4.32;2.33;;;19.90;99.90;;;;;;5035079;28;20044;-88
2023/08/19 02:58:55;;;;;;;3.75;2.35;;;19.90;99.90;;;;;;5031362;28;20062;-88
2023/08/19 03:01:21;;;;;;;4.28;2.30;;;19.90;99.90;;;;;;5027457;28;20049;-88
2023/08/19 03:03:48;;;;;;;4.45;2.22;;;19.90;99.90;;;;;;5037353;28;20052;-87
2023/08/19 03:06:14;;;;;;;3.45;2.28;;;19.90;99.90;;;;;;5021647;28;20029;-88
2023/08/19 03:08:40;;;;;;;4.47;2.00;;;19.90;99.90;;;;;;5019566;28;20053;-86
2023/08/19 03:11:06;;;;;;;6.78;2.30;;;19.80;99.90;;;;;;5027870;28;20045;-86
2023/08/19 03:13:33;;;;;;;7.28;2.72;;;19.90;99.90;;;;;;5029491;28;20042;-87
2023/08/19 03:16:02;;;;;;;3.35;2.65;;;19.90;99.90;;;;;;5016942;28;20026;-87
2023/08/19 03:18:29;;;;;;;3.40;2.30;;;19.90;99.90;;;;;;5032775;28;20041;-87
2023/08/19 03:20:58;;;;;;;3.20;2.22;;;20.00;99.90;;;;;;5036261;28;20037;-80
2023/08/19 03:23:26;;;;;;;;;;;20.10;99.90;;;;;;5039696;28;20048;-87
2023/08/19 03:25:54;;;;;;;10.45;2.63;;;20.10;99.90;;;;;;5025700;28;20355;-82
2023/08/19 03:28:20;;;;;;;4.90;2.53;;;20.20;99.90;;;;;;5030140;28;20052;-86
2023/08/19 03:30:47;;;;;;;4.00;2.08;;;20.10;99.90;;;;;;5032810;28;20048;-87
2023/08/19 03:33:13;;;;;;;6.03;2.45;;;20.10;99.90;;;;;;5027763;28;20034;-86
2023/08/19 03:35:39;;;;;;;3.70;2.47;;;20.10;99.90;;;;;;5020236;28;20053;-87
2023/08/19 03:38:07;;;;;;;4.55;2.60;;;20.10;99.90;;;;;;5031055;28;20061;-87
2023/08/19 03:40:33;;;;;;;3.88;2.28;;;20.10;99.90;;;;;;5035766;28;20033;-88
2023/08/19 03:42:59;;;;;;;4.00;2.17;;;20.10;99.90;;;;;;5028093;28;20035;-87
2023/08/19 03:45:33;;;;;;;5.22;2.38;;;20.10;99.90;;;;;;5037109;28;20041;-87
2023/08/19 03:47:59;;;;;;;4.70;2.25;;;20.00;99.90;;;;;;5027868;28;20041;-87
2023/08/19 03:50:25;;;;;;;4.72;1.90;;;20.00;99.90;;;;;;5022834;28;20054;-88
2023/08/19 03:52:52;;;;;;;5.57;2.55;;;19.90;99.90;;;;;;5023887;28;20379;-86
2023/08/19 03:55:18;;;;;;;4.00;2.33;;;19.90;99.90;;;;;;5031143;28;20029;-87
2023/08/19 03:57:44;;;;;;;3.78;2.45;;;19.90;99.90;;;;;;5028069;28;20046;-87
2023/08/19 04:00:11;;;;;;;4.85;2.50;;;19.80;99.90;;;;;;5027286;28;20037;-87
2023/08/19 04:02:48;;;;;;;9.23;2.80;;;19.80;99.90;;;;;;5072034;28;20052;-87
2023/08/19 04:05:15;;;;;;;3.70;2.58;;;19.80;99.90;;;;;;5037026;28;20044;-86
2023/08/19 04:07:41;;;;;;;3.85;2.60;;;19.80;99.90;;;;;;5031528;28;20056;-88
2023/08/19 04:10:08;;;;;;;3.63;2.10;;;19.60;99.90;;;;;;5030858;28;20052;-88
2023/08/19 04:12:35;;;;;;;3.47;2.60;;;19.50;99.90;;;;;;5036087;28;20049;-87
2023/08/19 04:15:02;;;;;;;3.40;2.17;;;19.50;99.90;;;;;;5027190;28;20025;-86
2023/08/19 04:17:29;;;;;;;5.07;2.63;;;19.40;99.90;;;;;;5017742;28;20073;-88
2023/08/19 04:19:57;;;;;;;4.15;2.63;;;19.40;99.90;;;;;;5026575;28;20045;-81
2023/08/19 04:22:23;;;;;;;4.97;2.55;;;19.40;99.90;;;;;;5036238;28;20045;-88
2023/08/19 04:24:51;;;;;;;4.03;2.13;;;19.30;99.90;;;;;;5031927;28;20363;-87
2023/08/19 04:27:18;;;;;;;3.85;2.47;;;19.30;99.90;;;;;;5028608;28;20017;-87
2023/08/19 04:29:45;;;;;;;4.68;2.75;;;19.20;99.90;;;;;;5033569;28;20056;-87
2023/08/19 04:32:13;;;;;;;4.15;2.72;;;19.20;99.90;;;;;;5036687;28;20033;-88
2023/08/19 04:34:39;;;;;;;5.07;2.47;;;19.10;99.90;;;;;;5036382;28;20053;-87
2023/08/19 04:37:08;;;;;;;6.00;2.95;;;19.10;99.90;;;;;;5027787;28;20061;-88
2023/08/19 04:39:37;;;;;;;4.55;2.50;;;19.10;99.90;;;;;;5031642;28;20899;-87
2023/08/19 04:42:10;;;;;;;3.03;2.08;;;19.10;99.90;;;;;;5021092;28;20053;-87
2023/08/19 04:44:36;;;;;;;3.83;2.47;;;19.10;99.90;;;;;;5032360;28;20049;-87
2023/08/19 04:47:03;;;;;;;4.85;2.67;;;19.10;99.90;;;;;;5036016;28;20034;-87
2023/08/19 04:49:30;;;;;;;3.40;1.92;;;19.10;99.90;;;;;;5037599;28;20072;-87
2023/08/19 04:51:58;;;;;;;4.43;2.70;;;19.10;99.90;;;;;;5027034;28;20036;-85
2023/08/19 04:54:25;;;;;;;3.58;2.72;;;19.20;99.90;;;;;;5034579;28;20042;-87
2023/08/19 04:56:51;;;;;;;5.20;3.13;;;19.30;99.90;;;;;;5029844;28;20056;-87
2023/08/19 04:59:17;;;;;;;3.97;2.72;;;19.40;99.90;;;;;;5023080;28;20135;-88
2023/08/19 05:01:44;;;;;;;3.70;2.17;;;19.60;99.90;;;;;;5021938;28;20398;-88
2023/08/19 05:04:10;;;;;;;3.80;2.35;;;19.90;99.90;;;;;;5019936;28;20042;-87
2023/08/19 05:06:37;;;;;;;5.00;2.58;;;20.40;99.90;;;;;;5034432;28;20042;-86
2023/08/19 05:09:03;;;;;;;7.10;2.42;;;20.90;99.90;;;;;;5035147;28;20056;-87
2023/08/19 05:11:30;;;;;;;3.42;2.38;;;21.30;46.20;;;;;;5038433;28;20041;-87
2023/08/19 05:14:00;;;;;;;;;;;22.10;1.00;;;;;;5041732;28;20045;-82
2023/08/19 05:16:26;;;;;;;5.07;2.03;;;22.60;1.00;;;;;;5026074;28;19909;-87
2023/08/19 05:19:14;;;;;;;4.68;2.40;;;23.20;99.90;;;;;;5030560;28;20060;-86
2023/08/19 05:21:41;;;;;;;3.92;2.45;;;23.50;99.90;;;;;;5027882;28;20475;-88
2023/08/19 05:24:11;;;;;;;6.93;2.03;;;24.10;99.90;;;;;;5019625;28;20054;-88
2023/08/19 05:26:39;;;;;;;6.28;2.00;;;23.40;99.90;;;;;;5028217;28;20033;-87
2023/08/19 05:29:05;;;;;;;3.00;1.85;;;22.90;99.90;;;;;;5040905;28;20060;-87
2023/08/19 05:31:31;;;;;;;5.25;1.65;;;23.70;99.90;;;;;;5035402;28;20388;-87
2023/08/19 05:33:57;;;;;;;4.60;2.47;;;24.90;99.90;;;;;;5029616;28;20040;-87
2023/08/19 05:36:23;;;;;;;3.80;1.90;;;25.70;30.50;;;;;;5024854;28;20045;-87
2023/08/19 05:38:50;;;;;;;3.60;1.95;;;26.60;1.00;;;;;;5032280;28;20037;-87
2023/08/19 05:41:16;;;;;;;4.50;1.63;;;27.30;1.00;;;;;;5025596;28;20045;-89
2023/08/19 05:43:42;;;;;;;3.67;1.75;;;27.70;1.00;;;;;;5020859;28;20041;-88
2023/08/19 05:46:09;;;;;;;6.32;2.20;;;26.70;1.00;;;;;;5026597;28;20105;-88
2023/08/19 05:48:35;;;;;;;3.47;2.00;;;25.70;9.90;;;;;;5024327;28;20085;-88
2023/08/19 05:51:02;;;;;;;3.45;1.98;;;26.90;1.00;;;;;;5030542;28;20037;-82
2023/08/19 05:53:29;;;;;;;3.53;2.13;;;28.40;1.00;;;;;;5031491;28;20047;-88
2023/08/19 05:55:55;;;;;;;2.92;2.20;;;29.10;99.90;;;;;;5035754;28;20510;-88
2023/08/19 05:58:21;;;;;;;4.00;1.98;;;29.80;99.90;;;;;;5026849;28;20230;-88
2023/08/19 06:00:47;;;;;;;2.97;1.90;;;30.40;99.90;;;;;;5022323;28;20045;-87
2023/08/19 06:03:14;;;;;;;5.10;2.03;;;29.30;99.90;;;;;;5033512;28;20037;-89
2023/08/19 06:05:41;;;;;;;5.82;2.38;;;28.10;99.90;;;;;;5024275;28;20072;-88
2023/08/19 06:08:07;;;;;;;2.33;1.63;;;27.70;1.00;;;;;;5018548;28;20037;-88
2023/08/19 06:10:33;;;;;;;4.25;1.88;;;29.20;99.90;;;;;;5017138;28;20049;-88
2023/08/19 06:13:00;;;;;;;4.15;1.83;;;30.20;99.90;;;;;;5041100;28;20399;-89
2023/08/19 06:15:26;;;;;;;2.42;1.88;;;30.50;99.90;;;;;;5021154;28;20037;-88
2023/08/19 06:17:53;;;;;;;3.50;1.95;;;30.90;99.90;;;;;;5023805;28;20574;-88
2023/08/19 06:20:19;;;;;;;4.90;2.50;;;31.00;99.90;;;;;;5035959;28;20045;-89
2023/08/19 06:22:45;;;;;;;6.30;2.50;;;30.50;99.90;;;;;;5029084;28;20053;-89
2023/08/19 06:25:11;;;;;;;5.55;2.53;;;30.70;99.90;;;;;;5023147;28;20033;-88
2023/08/19 06:27:38;;;;;;;5.10;2.55;;;29.50;99.90;;;;;;5020229;28;20038;-89
2023/08/19 06:30:05;;;;;;;4.90;2.80;;;28.50;99.90;;;;;;5025910;28;20040;-82
2023/08/19 06:32:31;;;;;;;5.47;3.10;;;28.30;99.90;;;;;;5024682;28;20497;-89
2023/08/19 06:34:57;;;;;;;6.90;2.67;;;28.90;99.90;;;;;;5027654;28;20044;-89
2023/08/19 06:37:30;;;;;;;8.07;3.45;;;28.60;99.90;;;;;;5035363;28;20032;-89
2023/08/19 06:40:04;;;;;;;7.65;2.60;;;28.30;99.90;;;;;;5032730;28;20037;-88
2023/08/19 06:42:31;;;;;;;3.35;2.88;;;27.90;99.90;;;;;;5024454;28;20037;-89
2023/08/19 06:44:59;;;;;;;4.30;1.90;;;28.80;99.90;;;;;;5029893;28;20028;-89
2023/08/19 06:47:29;;;;;;;5.47;2.33;;;30.40;99.90;;;;;;5026694;28;20052;-90
2023/08/19 06:49:56;;;;;;;5.40;2.53;;;30.80;99.90;;;;;;5022620;28;20522;-87
2023/08/19 06:52:22;;;;;;;5.25;2.05;;;31.00;99.90;;;;;;5013863;28;20037;-89
2023/08/19 06:54:49;;;;;;;3.83;2.53;;;30.10;99.90;;;;;;5028550;28;20052;-88
2023/08/19 06:57:32;;;;;;;4.28;2.53;;;29.00;99.90;;;;;;5036821;28;20020;-89
2023/08/19 07:00:10;;;;;;;4.15;2.20;;;29.20;99.90;;;;;;5032264;28;20406;-90
2023/08/19 07:02:38;;;;;;;2.97;1.95;;;30.30;99.90;;;;;;5033461;28;20036;-89
2023/08/19 07:05:13;;;;;;;3.63;2.08;;;30.10;99.90;;;;;;5030980;28;20045;-83
2023/08/19 07:07:46;;;;;;;4.60;2.50;;;29.70;99.90;;;;;;5020718;28;20042;-89
2023/08/19 07:10:20;;;;;;;4.32;1.67;;;30.40;99.90;;;;;;5022682;28;20831;-88
2023/08/19 07:12:47;;;;;;;2.55;1.75;;;30.70;99.90;;;;;;5023746;28;20050;-90
2023/08/19 07:15:14;;;;;;;4.47;2.00;;;31.20;99.90;;;;;;5018775;28;20056;-89
2023/08/19 07:17:45;;;;;;;3.45;1.85;;;31.50;99.90;;;;;;5031014;28;20029;-88
2023/08/19 07:20:15;;;;;;;3.95;1.98;;;31.20;99.90;;;;;;5033668;28;20055;-86
2023/08/19 07:22:43;;;;;;;3.72;2.38;;;31.00;99.90;;;;;;5034467;28;20466;-88
2023/08/19 07:25:10;;;;;;;4.00;1.85;;;31.00;99.90;;;;;;5026778;28;20346;-86
2023/08/19 07:27:36;;;;;;;5.07;1.63;;;30.90;99.90;;;;;;5024513;28;20033;-89
2023/08/19 07:30:03;;;;;;;2.25;1.75;;;31.30;99.90;;;;;;5030968;28;20045;-89
2023/08/19 07:32:31;;;;;;;2.85;1.30;;;31.10;99.90;;;;;;5031499;28;20033;-88
2023/08/19 07:34:57;;;;;;;2.95;1.77;;;30.40;99.90;;;;;;5028630;28;20034;-89
2023/08/19 07:37:23;;;;;;;3.63;1.50;;;29.80;99.90;;;;;;5026364;28;20041;-88
2023/08/19 07:39:53;;;;;;;2.53;1.67;;;29.30;99.90;;;;;;5044423;28;20048;-88
2023/08/19 07:42:19;;;;;;;3.80;1.52;;;28.80;99.90;;;;;;5037596;28;20363;-87
2023/08/19 07:44:45;;;;;;;5.22;1.52;;;28.20;99.90;;;;;;5033368;28;20139;-85
2023/08/19 07:47:11;;;;;;;4.40;1.73;;;28.00;99.90;;;;;;5032758;28;20475;-87
2023/08/19 07:49:40;;;;;;;6.18;1.83;;;28.90;99.90;;;;;;5033328;28;20037;-89
2023/08/19 07:52:07;;;;;;;4.18;1.60;;;30.20;99.90;;;;;;5026329;28;20042;-87
2023/08/19 07:54:33;;;;;;;3.00;1.48;;;31.10;99.90;;;;;;5032790;28;20494;-88
2023/08/19 07:56:59;;;;;;;2.22;1.30;;;31.50;99.90;;;;;;5025054;28;20041;-89
2023/08/19 07:59:26;;;;;;;3.03;1.35;;;32.30;99.90;;;;;;5023850;28;20253;-87
2023/08/19 08:01:54;;;;;;;2.92;1.20;;;32.30;99.90;;;;;;5037013;28;20063;-91
2023/08/19 08:04:21;;;;;;;2.00;1.40;;;32.30;99.90;;;;;;5039274;28;20121;-87
2023/08/19 08:06:51;;;;;;;1.80;1.30;;;31.70;99.90;;;;;;5034993;28;20037;-87
2023/08/19 08:09:18;;;;;;;2.55;1.27;;;31.30;99.90;;;;;;5027308;28;20045;-89
2023/08/19 08:11:45;;;;;;;2.67;1.27;;;30.80;99.90;;;;;;5034774;28;20053;-88
2023/08/19 08:14:11;;;;;;;1.58;0.90;;;31.10;99.90;;;;;;5028502;28;20455;-89
2023/08/19 08:16:38;;;;;;;3.45;1.08;;;31.50;99.90;;;;;;5025142;28;20030;-86
2023/08/19 08:19:05;;;;;;;2.35;1.00;;;31.70;99.90;;;;;;5021070;28;20034;-82
2023/08/19 08:21:31;;;;;;;2.85;1.17;;;31.50;99.90;;;;;;5029811;28;20041;-87
2023/08/19 08:23:57;;;;;;;2.17;1.48;;;31.30;99.90;;;;;;5039925;28;20037;-88
2023/08/19 08:26:23;;;;;;;2.85;1.40;;;31.30;99.90;;;;;;5031187;28;20729;-86
2023/08/19 08:28:50;;;;;;;3.60;1.38;;;31.70;99.90;;;;;;5035929;28;20040;-86
2023/08/19 08:31:16;;;;;;;1.70;1.10;;;31.70;99.90;;;;;;5029243;28;20029;-87
2023/08/19 08:33:42;;;;;;;2.30;1.23;;;31.70;99.90;;;;;;5026125;28;20057;-90
2023/08/19 08:36:08;;;;;;;2.78;1.40;;;31.90;99.90;;;;;;5022883;28;20457;-84
2023/08/19 08:38:34;;;;;;;2.45;1.10;;;32.10;99.90;;;;;;5032072;28;20025;-91
2023/08/19 08:41:06;;;;;;;2.58;1.15;;;32.60;99.90;;;;;;5025493;28;20042;-89
2023/08/19 08:43:33;;;;;;;2.83;2.00;;;32.40;99.90;;;;;;5023011;28;20029;-87
2023/08/19 08:46:00;;;;;;;2.85;1.73;;;32.20;99.90;;;;;;5039335;28;20036;-84
2023/08/19 08:48:32;;;;;;;2.38;1.40;;;32.60;99.90;;;;;;5039129;28;20229;-89
2023/08/19 08:50:59;;;;;;;2.55;1.23;;;32.70;99.90;;;;;;5034780;28;20037;-86
2023/08/19 08:53:30;;;;;;;1.75;1.30;;;32.20;99.90;;;;;;5033936;28;20034;-88
2023/08/19 08:55:59;;;;;;;3.75;1.55;;;32.50;99.90;;;;;;5032721;28;20030;-85
2023/08/19 08:58:25;;;;;;;2.03;1.42;;;32.70;99.90;;;;;;5025879;28;20053;-85
2023/08/19 09:00:52;;;;;;;2.10;1.40;;;32.60;99.90;;;;;;5022211;28;20037;-86
2023/08/19 09:03:23;;;;;;;2.38;1.60;;;32.60;99.90;;;;;;5023855;28;20038;-88
2023/08/19 09:05:58;;;;;;;3.72;1.70;;;32.10;99.90;;;;;;5029370;28;20045;-90
2023/08/19 09:08:33;;;;;;;3.33;1.77;;;32.20;99.90;;;;;;5029856;28;20036;-87
2023/08/19 09:11:00;;;;;;;3.25;2.03;;;32.30;99.90;;;;;;5033654;28;20041;-88
2023/08/19 09:13:27;;;;;;;2.13;1.48;;;32.20;99.90;;;;;;5030282;28;20033;-87
2023/08/19 09:15:54;;;;;;;8.68;1.98;;;32.10;99.90;;;;;;5028183;28;20080;-87
2023/08/19 09:18:21;;;;;;;3.53;2.08;;;31.90;99.90;;;;;;5022330;28;20097;-87
2023/08/19 09:20:47;;;;;;;2.60;2.00;;;31.90;99.90;;;;;;5035412;28;20037;-87
2023/08/19 09:23:13;;;;;;;3.15;1.85;;;31.80;99.90;;;;;;5025272;28;20074;-88
2023/08/19 09:25:40;;;;;;;3.05;2.13;;;31.80;99.90;;;;;;5021037;28;20041;-82
2023/08/19 09:28:07;;;;;;;4.03;2.10;;;31.60;99.90;;;;;;5048228;28;20048;-91
2023/08/19 09:30:34;;;;;;;4.15;2.30;;;31.50;99.90;;;;;;5038447;28;20041;-87
2023/08/19 09:33:01;;;;;;;4.03;2.00;;;31.30;99.90;;;;;;5034534;28;20033;-88
2023/08/19 09:35:38;;;;;;;3.35;1.88;;;31.10;99.90;;;;;;5030231;28;20033;-88
2023/08/19 09:38:04;;;;;;;3.28;2.25;;;31.30;99.90;;;;;;5033512;28;20034;-85
2023/08/19 09:40:31;;;;;;;4.20;2.00;;;31.30;99.90;;;;;;5031202;28;20037;-90
2023/08/19 09:42:58;;;;;;;3.30;2.28;;;31.30;99.90;;;;;;5028851;28;20025;-86
2023/08/19 09:45:26;;;;;;;4.68;2.10;;;31.20;99.90;;;;;;5030109;28;20033;-88
2023/08/19 09:47:54;;;;;;;3.10;1.73;;;31.00;99.90;;;;;;5029331;28;20048;-86
2023/08/19 09:50:22;;;;;;;3.38;1.58;;;31.10;99.90;;;;;;5032056;28;20028;-88
2023/08/19 09:52:56;;;;;;;3.80;2.28;;;31.20;99.90;;;;;;5034006;28;20477;-89
2023/08/19 09:55:32;;;;;;;7.07;2.03;;;31.30;99.90;;;;;;5029275;28;20044;-89
2023/08/19 09:57:58;;;;;;;3.22;1.83;;;31.30;99.90;;;;;;5030496;28;20036;-84
2023/08/19 10:00:25;;;;;;;3.13;1.92;;;31.10;99.90;;;;;;5026500;28;20053;-76
2023/08/19 10:02:51;;;;;;;3.78;2.30;;;31.30;99.90;;;;;;5031313;28;20053;-82
2023/08/19 10:05:18;;;;;;;3.15;1.90;;;31.20;99.90;;;;;;5030762;28;20025;-83
2023/08/19 10:07:52;;;;;;;3.55;1.70;;;30.90;99.90;;;;;;5026590;28;20045;-82
2023/08/19 10:10:20;;;;;;;3.95;2.20;;;30.90;99.90;;;;;;5025391;28;20067;-83
2023/08/19 10:12:50;;;;;;;4.78;2.28;;;31.00;99.90;;;;;;5037360;28;20052;-83
2023/08/19 10:15:17;;;;;;;;;;;31.10;99.90;;;;;;5032318;28;20036;-82
2023/08/19 10:17:49;;;;;;;3.75;2.30;;;31.00;99.90;;;;;;5028811;28;19905;-81
2023/08/19 10:20:18;;;;;;;3.88;2.42;;;31.10;99.90;;;;;;5033992;28;20041;-83
2023/08/19 10:22:50;;;;;;;2.40;1.90;;;30.90;99.90;;;;;;5029305;28;20034;-83
2023/08/19 10:25:19;;;;;;;3.30;2.13;;;30.90;99.90;;;;;;5019411;28;20045;-85
2023/08/19 10:27:45;;;;;;;5.25;2.63;;;31.10;99.90;;;;;;5025897;28;20174;-82
2023/08/19 10:30:33;;;;;;;7.68;2.78;;;31.40;99.90;;;;;;5024693;28;20044;-82
2023/08/19 10:33:32;;;;;;;5.28;2.00;;;31.70;99.90;;;;;;5020224;28;20482;-85
2023/08/19 10:36:03;;;;;;;3.45;2.15;;;31.80;99.90;;;;;;5029129;28;20025;-82
2023/08/19 10:38:48;;;;;;;3.10;2.25;;;31.80;99.90;;;;;;5024610;28;20037;-83
2023/08/19 10:41:29;;;;;;;3.78;2.47;;;31.70;99.90;;;;;;5025777;28;20037;-83
2023/08/19 10:44:13;;;;;;;4.70;2.33;;;31.60;99.90;;;;;;5022653;28;20475;-83
2023/08/19 10:46:42;;;;;;;9.57;2.17;;;31.80;99.90;;;;;;5032314;28;20037;-83
2023/08/19 10:49:14;;;;;;;4.35;2.80;;;31.80;99.90;;;;;;5023976;28;20108;-84
2023/08/19 10:52:00;;;;;;;3.85;2.65;;;31.80;99.90;;;;;;5006600;28;20038;-81
2023/08/19 10:54:38;;;;;;;5.28;2.67;;;31.70;99.90;;;;;;5029357;28;20047;-78
2023/08/19 10:57:11;;;;;;;3.33;2.13;;;31.50;99.90;;;;;;5027821;28;20380;-81
2023/08/19 10:59:40;;;;;;;4.20;2.22;;;31.50;99.90;;;;;;5028316;28;20065;-80
2023/08/19 11:02:08;;;;;;;;;;;31.70;99.90;;;;;;5033457;28;20030;-80
2023/08/19 11:04:38;;;;;;;3.15;2.53;;;31.90;99.90;;;;;;5030016;28;19905;-81
2023/08/19 11:07:07;;;;;;;3.78;2.15;;;32.00;99.90;;;;;;5029277;28;20049;-82
2023/08/19 11:09:34;;;;;;;4.90;2.88;;;32.10;99.90;;;;;;5034441;28;20596;-80
2023/08/19 11:12:01;;;;;;;3.30;2.25;;;32.20;99.90;;;;;;5037498;28;20026;-81
2023/08/19 11:14:27;;;;;;;3.90;2.10;;;32.20;99.90;;;;;;5029573;28;20037;-81
2023/08/19 11:16:55;;;;;;;8.18;2.72;;;32.10;99.90;;;;;;5032470;28;20030;-80
2023/08/19 11:19:23;;;;;;;5.00;2.95;;;32.20;99.90;;;;;;5030706;28;20389;-82
2023/08/19 11:21:49;;;;;;;7.65;3.10;;;32.30;99.90;;;;;;5040716;28;20465;-80
2023/08/19 11:24:15;;;;;;;3.55;2.30;;;32.40;99.90;;;;;;5033337;28;20033;-80
2023/08/19 11:26:43;;;;;;;4.00;2.58;;;32.30;99.90;;;;;;5030752;28;20045;-81
2023/08/19 11:29:10;;;;;;;7.00;2.83;;;32.20;99.90;;;;;;5036824;28;20029;-81
2023/08/19 11:31:38;;;;;;;4.32;2.72;;;32.50;99.90;;;;;;5039061;28;20049;-82
2023/08/19 11:34:12;;;;;;;3.92;2.75;;;32.60;99.90;;;;;;5024025;28;20034;-81
2023/08/19 11:36:40;;;;;;;4.43;3.13;;;33.00;99.90;;;;;;5028541;28;20044;-81
2023/08/19 11:39:07;;;;;;;7.20;2.63;;;33.00;99.90;;;;;;5038422;28;20054;-80
2023/08/19 11:41:34;;;;;;;3.70;2.45;;;33.00;99.90;;;;;;5036890;28;20082;-80
2023/08/19 11:44:05;;;;;;;4.35;2.50;;;33.30;99.90;;;;;;5034184;28;20045;-83
2023/08/19 11:46:35;;;;;;;4.18;2.15;;;33.00;99.90;;;;;;5039780;28;20482;-81
2023/08/19 11:49:07;;;;;;;8.52;2.92;;;33.10;99.90;;;;;;5033646;28;20387;-80
2023/08/19 11:51:36;;;;;;;3.88;2.60;;;33.30;99.90;;;;;;5026396;28;20038;-81
2023/08/19 11:54:08;;;;;;;4.07;2.78;;;33.30;99.90;;;;;;5034222;28;20030;-80
2023/08/19 11:56:51;;;;;;;4.30;2.53;;;33.00;99.90;;;;;;5032273;28;20355;-80
2023/08/19 11:59:18;;;;;;;4.35;2.53;;;32.60;99.90;;;;;;5027119;28;20057;-82
2023/08/19 12:01:47;;;;;;;2.63;1.98;;;32.60;99.90;;;;;;5033948;28;20040;-81
2023/08/19 12:04:18;;;;;;;3.35;2.28;;;32.80;99.90;;;;;;5044914;28;20382;-81
2023/08/19 12:06:46;;;;;;;2.85;1.92;;;32.90;94.80;;;;;;5037026;28;20049;-81
2023/08/19 12:09:12;;;;;;;3.17;2.37;;;32.80;85.40;;;;;;5028005;28;20378;-81
2023/08/19 12:11:39;;;;;;;4.63;2.10;;;32.60;91.20;;;;;;5034517;28;20378;-80
2023/08/19 12:14:06;;;;;;;3.15;2.00;;;32.60;87.20;;;;;;5033044;28;20047;-80
2023/08/19 12:16:32;;;;;;;2.78;2.05;;;32.40;92.60;;;;;;5023928;28;20058;-80
2023/08/19 12:18:59;;;;;;;4.72;2.35;;;32.50;92.50;;;;;;5019588;28;20029;-80
2023/08/19 12:21:26;;;;;;;4.45;2.42;;;32.70;93.00;;;;;;5026614;28;20391;-80
2023/08/19 12:23:52;;;;;;;3.10;2.30;;;32.70;83.60;;;;;;5036269;28;20490;-80
2023/08/19 12:26:18;;;;;;;3.40;2.33;;;32.40;82.20;;;;;;5029265;28;20037;-80
2023/08/19 12:28:44;;;;;;;2.67;1.63;;;32.10;91.40;;;;;;5033237;28;20049;-79
2023/08/19 12:31:11;;;;;;;4.50;2.45;;;31.90;94.80;;;;;;5032290;28;20397;-80
2023/08/19 12:33:39;;;;;;;3.05;2.15;;;31.60;97.80;;;;;;5024270;28;20046;-80
2023/08/19 12:36:07;;;;;;;5.13;2.80;;;31.50;97.20;;;;;;5031306;28;20492;-79
2023/08/19 12:38:33;;;;;;;3.38;2.20;;;31.40;99.90;;;;;;5029720;28;20765;-79
2023/08/19 12:40:59;;;;;;;4.75;2.22;;;31.50;99.90;;;;;;5026021;28;20048;-79
2023/08/19 12:43:25;;;;;;;2.70;1.85;;;31.40;99.90;;;;;;5019016;28;20387;-80
2023/08/19 12:45:51;;;;;;;4.40;2.28;;;31.40;99.90;;;;;;5041226;28;20034;-79
2023/08/19 12:48:17;;;;;;;4.90;1.95;;;31.30;99.90;;;;;;5044036;28;20037;-78
2023/08/19 12:50:44;;;;;;;2.92;2.15;;;31.10;99.90;;;;;;5030863;28;20045;-79
2023/08/19 12:53:10;;;;;;;3.25;2.38;;;30.90;99.90;;;;;;5022388;28;20048;-80